Time;durP1;ratioP1;P1;durP2;ratioP2;P2;SDS_P1;SDS_P2;PMS_P1;PMS_P2;Temp;Humidity;BMP_temperature;BMP_pressure;BME280_temperature;BME280_humidity;BME280_pressure;Samples;Min_cycle;Max_cycle;Signal;HPM_P1;HPM_P2
2021/10/06 00:00:22;;;;;;;19.30;11.07;;;;;;;12.55;nan;101095.75;4903451;29;20039;-48
2021/10/06 00:02:47;;;;;;;17.00;10.45;;;;;;;12.53;nan;101093.31;4899210;29;20036;-49
2021/10/06 00:05:13;;;;;;;17.35;10.75;;;;;;;12.57;nan;101091.78;4898983;29;20506;-48
2021/10/06 00:07:38;;;;;;;18.73;11.45;;;;;;;12.54;nan;101094.94;4898277;29;20028;-49
2021/10/06 00:10:05;;;;;;;17.73;11.20;;;;;;;12.55;nan;101087.69;4901884;29;20028;-49
2021/10/06 00:12:31;;;;;;;17.63;11.00;;;;;;;12.54;nan;101092.25;4900102;29;20539;-48
2021/10/06 00:14:57;;;;;;;18.27;10.98;;;;;;;12.48;nan;101090.59;4902142;29;20123;-50
2021/10/06 00:17:24;;;;;;;15.63;9.68;;;;;;;12.49;nan;101086.03;4898410;29;20032;-48
2021/10/06 00:19:50;;;;;;;17.67;10.27;;;;;;;12.43;nan;101095.09;4899154;29;20047;-51
2021/10/06 00:22:15;;;;;;;16.73;10.50;;;;;;;12.46;nan;101106.16;4900436;29;20024;-48
2021/10/06 00:24:41;;;;;;;16.63;10.68;;;;;;;12.48;nan;101114.78;4899016;29;20048;-50
2021/10/06 00:27:06;;;;;;;15.50;10.38;;;;;;;12.42;nan;101114.97;4905595;29;20576;-51
2021/10/06 00:29:32;;;;;;;17.02;10.50;;;;;;;12.41;nan;101108.81;4900670;29;20020;-51
2021/10/06 00:31:57;;;;;;;18.60;11.00;;;;;;;12.36;nan;101120.28;4900168;29;20475;-49
2021/10/06 00:34:22;;;;;;;15.55;11.00;;;;;;;12.38;nan;101118.16;4898495;29;20032;-48
2021/10/06 00:36:48;;;;;;;18.30;11.20;;;;;;;12.34;nan;101108.97;4900727;29;20554;-50
2021/10/06 00:39:14;;;;;;;21.80;11.32;;;;;;;12.33;nan;101123.47;4898513;29;20048;-48
2021/10/06 00:41:39;;;;;;;18.60;11.20;;;;;;;12.33;nan;101112.72;4900794;29;20407;-52
2021/10/06 00:44:05;;;;;;;20.05;11.27;;;;;;;12.31;nan;101116.72;4897357;29;21069;-49
2021/10/06 00:46:30;;;;;;;18.23;10.73;;;;;;;12.30;nan;101123.97;4895690;29;20114;-52
2021/10/06 00:48:56;;;;;;;19.08;11.35;;;;;;;12.27;nan;101124.47;4915042;29;20182;-48
2021/10/06 00:51:21;;;;;;;20.15;10.68;;;;;;;12.25;nan;101121.22;4895838;29;20184;-50
2021/10/06 00:53:47;;;;;;;19.27;11.63;;;;;;;12.17;nan;101113.59;4898960;29;20036;-51
2021/10/06 00:56:12;;;;;;;17.50;10.45;;;;;;;12.24;nan;101108.06;4895611;29;20317;-48
2021/10/06 00:58:38;;;;;;;19.17;10.43;;;;;;;12.26;nan;101106.75;4897008;29;20592;-49
2021/10/06 01:01:04;;;;;;;16.10;10.48;;;;;;;12.18;nan;101115.22;4898179;29;20032;-48
2021/10/06 01:03:29;;;;;;;14.82;10.27;;;;;;;12.13;nan;101112.47;4902055;29;20119;-50
2021/10/06 01:05:55;;;;;;;18.30;10.82;;;;;;;12.12;nan;101116.22;4899233;29;20028;-48
2021/10/06 01:08:21;;;;;;;15.77;10.05;;;;;;;12.13;nan;101125.09;4899833;29;20491;-48
2021/10/06 01:10:47;;;;;;;16.23;11.25;;;;;;;12.12;nan;101139.59;4900413;29;20035;-51
2021/10/06 01:13:16;;;;;;;14.60;10.80;;;;;;;12.11;nan;101146.84;4900937;29;20028;-50
2021/10/06 01:15:45;;;;;;;16.42;11.02;;;;;;;12.08;nan;101156.19;4902566;29;20028;-49
2021/10/06 01:18:11;;;;;;;15.20;10.20;;;;;;;12.07;nan;101154.56;4903859;29;20352;-48
2021/10/06 01:20:37;;;;;;;15.93;10.70;;;;;;;12.12;nan;101159.19;4902591;29;20076;-48
2021/10/06 01:23:02;;;;;;;18.95;10.55;;;;;;;12.15;nan;101153.31;4898452;29;20036;-52
2021/10/06 01:25:28;;;;;;;16.45;10.18;;;;;;;12.14;nan;101158.94;4898235;29;20027;-48
2021/10/06 01:27:53;;;;;;;18.35;10.35;;;;;;;12.09;nan;101152.44;4898794;29;20075;-49
2021/10/06 01:30:19;;;;;;;17.67;10.50;;;;;;;12.11;nan;101168.31;4897359;29;20059;-49
2021/10/06 01:32:46;;;;;;;17.65;10.98;;;;;;;12.09;nan;101165.06;4900934;29;20027;-49
2021/10/06 01:35:13;;;;;;;17.67;10.88;;;;;;;12.08;nan;101169.63;4895653;29;20051;-48
2021/10/06 01:37:40;;;;;;;14.73;10.25;;;;;;;12.03;nan;101172.25;4895548;29;20495;-50
2021/10/06 01:40:14;;;;;;;15.15;10.27;;;;;;;11.99;nan;101163.03;4897456;29;20063;-50
2021/10/06 01:42:39;;;;;;;17.40;10.85;;;;;;;12.00;nan;101163.84;4900741;29;20119;-49
2021/10/06 01:45:06;;;;;;;17.27;9.85;;;;;;;11.98;nan;101152.56;4899606;29;20163;-50
2021/10/06 01:47:31;;;;;;;16.20;10.60;;;;;;;11.94;nan;101152.25;4897527;29;20107;-49
2021/10/06 01:49:57;;;;;;;17.23;10.30;;;;;;;11.95;nan;101147.69;4895283;29;20056;-49
2021/10/06 01:52:24;;;;;;;15.57;10.50;;;;;;;12.02;nan;101140.25;4898139;29;20032;-49
2021/10/06 01:54:52;;;;;;;15.98;10.10;;;;;;;12.04;nan;101140.84;4881867;29;20396;-51
2021/10/06 01:57:18;;;;;;;15.88;10.05;;;;;;;12.03;nan;101129.28;4896750;29;20095;-48
2021/10/06 01:59:45;;;;;;;17.52;10.02;;;;;;;12.05;nan;101131.72;4896410;29;20069;-50
2021/10/06 02:02:11;;;;;;;15.00;10.07;;;;;;;12.03;nan;101129.28;4899045;29;20047;-51
2021/10/06 02:04:37;;;;;;;16.15;9.90;;;;;;;12.08;nan;101131.22;4899757;29;20044;-50
2021/10/06 02:07:03;;;;;;;16.20;10.10;;;;;;;12.04;nan;101128.22;4897086;29;20043;-48
2021/10/06 02:09:28;;;;;;;15.32;9.93;;;;;;;12.01;nan;101141.31;4896927;29;20035;-50
2021/10/06 02:11:54;;;;;;;15.82;9.35;;;;;;;12.01;nan;101152.06;4900453;29;20032;-50
2021/10/06 02:14:19;;;;;;;15.32;9.65;;;;;;;12.04;nan;101160.44;4903003;29;20024;-49
2021/10/06 02:16:45;;;;;;;16.52;10.02;;;;;;;12.00;nan;101147.75;4903386;29;20502;-48
2021/10/06 02:19:10;;;;;;;15.55;9.85;;;;;;;12.02;nan;101153.69;4896273;29;20032;-52
2021/10/06 02:21:36;;;;;;;15.02;9.63;;;;;;;12.01;nan;101146.69;4897359;29;20059;-48
2021/10/06 02:24:03;;;;;;;14.50;9.40;;;;;;;12.05;nan;101153.22;4896992;29;20560;-50
2021/10/06 02:26:29;;;;;;;14.50;9.90;;;;;;;12.02;nan;101149.13;4901124;29;20174;-48
2021/10/06 02:28:55;;;;;;;16.40;8.55;;;;;;;11.99;nan;101146.13;4897722;29;20127;-52
2021/10/06 02:31:21;;;;;;;16.05;9.65;;;;;;;12.00;nan;101143.19;4900444;29;20619;-48
2021/10/06 02:33:46;;;;;;;15.73;9.27;;;;;;;11.96;nan;101152.81;4906000;29;20034;-49
2021/10/06 02:36:12;;;;;;;12.60;8.30;;;;;;;11.98;nan;101149.88;4895934;29;20058;-49
2021/10/06 02:38:37;;;;;;;17.70;9.70;;;;;;;12.00;nan;101147.75;4893907;29;20119;-51
2021/10/06 02:41:03;;;;;;;12.65;8.93;;;;;;;11.99;nan;101146.13;4898307;29;20073;-51
2021/10/06 02:43:28;;;;;;;14.40;9.35;;;;;;;11.96;nan;101163.53;4895357;29;20119;-49
2021/10/06 02:45:54;;;;;;;15.90;9.52;;;;;;;11.90;nan;101166.41;4899190;29;20414;-48
2021/10/06 02:48:21;;;;;;;12.68;9.00;;;;;;;11.90;nan;101155.66;4898708;29;20028;-49
2021/10/06 02:50:47;;;;;;;14.43;10.57;;;;;;;11.89;nan;101154.03;4901737;29;20390;-50
2021/10/06 02:53:13;;;;;;;15.00;9.25;;;;;;;11.85;nan;101172.53;4898272;29;20477;-48
2021/10/06 02:55:38;;;;;;;13.80;9.38;;;;;;;11.84;nan;101186.97;4904193;29;20088;-51
2021/10/06 02:58:04;;;;;;;15.98;9.98;;;;;;;11.90;nan;101182.53;4900214;29;20212;-50
2021/10/06 03:00:29;;;;;;;13.18;9.30;;;;;;;11.88;nan;101182.78;4902979;29;20036;-49
2021/10/06 03:02:55;;;;;;;13.90;8.80;;;;;;;11.84;nan;101189.66;4903024;29;20064;-49
2021/10/06 03:05:20;;;;;;;14.32;8.75;;;;;;;11.87;nan;101196.44;4902178;29;20491;-49
2021/10/06 03:07:46;;;;;;;13.48;8.98;;;;;;;11.84;nan;101200.41;4900605;29;20024;-51
2021/10/06 03:10:12;;;;;;;15.52;9.82;;;;;;;11.82;nan;101199.03;4903422;29;20035;-49
2021/10/06 03:12:38;;;;;;;13.98;9.35;;;;;;;11.79;nan;101198.47;4904308;29;20028;-49
2021/10/06 03:15:04;;;;;;;14.75;9.38;;;;;;;11.80;nan;101205.47;4896998;29;20463;-49
2021/10/06 03:17:30;;;;;;;13.98;9.38;;;;;;;11.79;nan;101208.38;4898001;29;20036;-50
2021/10/06 03:19:55;;;;;;;15.70;10.18;;;;;;;11.78;nan;101202.22;4897584;29;20032;-48
2021/10/06 03:22:21;;;;;;;16.30;9.63;;;;;;;11.78;nan;101215.63;4897972;29;20545;-49
2021/10/06 03:24:46;;;;;;;13.00;8.85;;;;;;;11.78;nan;101215.63;4906370;29;20028;-51
2021/10/06 03:27:13;;;;;;;13.50;9.23;;;;;;;11.76;nan;101212.34;4902779;29;20111;-48
2021/10/06 03:29:39;;;;;;;12.50;9.43;;;;;;;11.75;nan;101221.47;4898006;29;20115;-48
2021/10/06 03:32:04;;;;;;;14.82;9.43;;;;;;;11.75;nan;101218.78;4900346;29;20119;-49
2021/10/06 03:34:30;;;;;;;12.73;8.90;;;;;;;11.83;nan;101230.19;4900908;29;20060;-49
2021/10/06 03:36:55;;;;;;;13.88;8.48;;;;;;;11.84;nan;101223.75;4901913;29;20031;-50
2021/10/06 03:39:21;;;;;;;12.68;8.73;;;;;;;11.86;nan;101227.84;4898386;29;21405;-48
2021/10/06 03:41:46;;;;;;;12.57;8.23;;;;;;;11.85;nan;101230.75;4921076;29;20031;-51
2021/10/06 03:44:12;;;;;;;13.70;8.60;;;;;;;11.88;nan;101232.97;4900913;29;20024;-48
2021/10/06 03:46:37;;;;;;;13.05;8.77;;;;;;;11.86;nan;101230.53;4904692;29;20031;-49
2021/10/06 03:49:03;;;;;;;15.80;8.70;;;;;;;11.88;nan;101227.59;4895915;29;20032;-48
2021/10/06 03:51:28;;;;;;;12.57;8.80;;;;;;;11.84;nan;101223.75;4903253;29;20114;-48
2021/10/06 03:53:54;;;;;;;12.55;8.50;;;;;;;11.86;nan;101229.72;4897550;29;20032;-48
2021/10/06 03:56:19;;;;;;;11.98;8.57;;;;;;;11.83;nan;101230.19;4899882;29;20125;-48
2021/10/06 03:58:45;;;;;;;13.63;8.40;;;;;;;11.81;nan;101241.16;4898348;29;20032;-48
2021/10/06 04:01:10;;;;;;;14.70;9.00;;;;;;;11.77;nan;101237.31;4900344;29;20043;-49
2021/10/06 04:03:35;;;;;;;13.45;8.57;;;;;;;11.72;nan;101256.84;4900928;29;20088;-50
2021/10/06 04:06:01;;;;;;;12.50;8.90;;;;;;;11.70;nan;101260.84;4901637;29;20024;-49
2021/10/06 04:08:26;;;;;;;11.00;8.30;;;;;;;11.65;nan;101260.72;4902335;29;21514;-50
2021/10/06 04:10:52;;;;;;;13.98;8.70;;;;;;;11.57;nan;101264.63;4902136;29;20032;-48
2021/10/06 04:13:17;;;;;;;12.45;7.82;;;;;;;11.63;nan;101278.94;4900746;29;20028;-49
2021/10/06 04:15:43;;;;;;;11.23;8.50;;;;;;;11.68;nan;101277.19;4904794;29;20063;-48
2021/10/06 04:18:10;;;;;;;13.07;8.40;;;;;;;11.77;nan;101273.03;4899828;29;20025;-50
2021/10/06 04:20:37;;;;;;;12.02;8.13;;;;;;;11.89;nan;101272.19;4904309;29;20114;-51
2021/10/06 04:23:03;;;;;;;12.18;7.57;;;;;;;11.97;nan;101274.47;4901644;29;20033;-49
2021/10/06 04:25:28;;;;;;;12.65;7.90;;;;;;;11.99;nan;101283.88;4903931;29;20025;-50
2021/10/06 04:27:54;;;;;;;11.52;7.80;;;;;;;12.06;nan;101286.44;4897435;29;20028;-50
2021/10/06 04:30:19;;;;;;;10.38;6.85;;;;;;;12.09;nan;101286.75;4897880;29;20406;-48
2021/10/06 04:32:45;;;;;;;11.35;7.45;;;;;;;12.05;nan;101287.50;4886941;29;20281;-49
2021/10/06 04:35:10;;;;;;;10.82;7.30;;;;;;;11.96;nan;101299.69;4897642;29;20060;-48
2021/10/06 04:37:36;;;;;;;10.80;6.88;;;;;;;11.91;nan;101296.91;4901624;29;20502;-51
2021/10/06 04:40:05;;;;;;;9.02;6.45;;;;;;;11.92;nan;101301.22;4900053;29;20548;-50
2021/10/06 04:42:30;;;;;;;7.75;6.47;;;;;;;11.85;nan;101308.63;4900071;29;20127;-49
2021/10/06 04:44:56;;;;;;;12.63;7.70;;;;;;;11.80;nan;101310.16;4900821;29;20174;-49
2021/10/06 04:47:21;;;;;;;9.32;6.68;;;;;;;11.82;nan;101319.84;4897923;29;20619;-50
2021/10/06 04:49:47;;;;;;;10.48;7.63;;;;;;;11.85;nan;101313.97;4897966;29;20036;-52
2021/10/06 04:52:12;;;;;;;11.75;8.05;;;;;;;11.88;nan;101316.22;4900336;29;20024;-51
2021/10/06 04:54:38;;;;;;;12.20;7.47;;;;;;;11.90;nan;101319.47;4900522;29;20047;-50
2021/10/06 04:57:03;;;;;;;11.63;7.38;;;;;;;11.95;nan;101325.72;4894397;29;20060;-49
2021/10/06 04:59:29;;;;;;;9.63;7.18;;;;;;;11.99;nan;101334.09;4896097;29;20567;-49
2021/10/06 05:01:55;;;;;;;9.55;6.50;;;;;;;11.94;nan;101334.03;4894583;29;20036;-50
2021/10/06 05:04:21;;;;;;;10.07;6.63;;;;;;;11.95;nan;101335.66;4896097;29;20035;-48
2021/10/06 05:06:46;;;;;;;9.13;6.57;;;;;;;11.87;nan;101344.13;4896998;29;20036;-49
2021/10/06 05:09:12;;;;;;;9.50;6.50;;;;;;;11.91;nan;101339.88;4898243;29;20036;-48
2021/10/06 05:11:37;;;;;;;11.57;6.50;;;;;;;11.90;nan;101343.63;4897987;29;20032;-49
2021/10/06 05:14:03;;;;;;;9.88;6.45;;;;;;;11.96;nan;101350.72;4899774;29;20137;-48
2021/10/06 05:16:28;;;;;;;8.57;6.25;;;;;;;11.91;nan;101359.50;4904826;29;20153;-49
2021/10/06 05:18:54;;;;;;;9.07;7.15;;;;;;;11.98;nan;101352.09;4900108;29;20032;-49
2021/10/06 05:21:19;;;;;;;9.00;6.38;;;;;;;11.97;nan;101352.34;4896248;29;20047;-52
2021/10/06 05:23:45;;;;;;;11.02;7.00;;;;;;;11.99;nan;101361.78;4895556;29;20425;-48
2021/10/06 05:26:10;;;;;;;12.45;6.00;;;;;;;11.99;nan;101364.47;4902734;29;20436;-51
2021/10/06 05:28:36;;;;;;;11.45;6.53;;;;;;;12.03;nan;101367.50;4898055;29;20039;-48
2021/10/06 05:31:01;;;;;;;8.00;6.10;;;;;;;12.08;nan;101372.94;4894479;29;20031;-49
2021/10/06 05:33:27;;;;;;;8.40;6.68;;;;;;;12.12;nan;101374.09;4894042;29;20267;-51
2021/10/06 05:35:52;;;;;;;8.25;5.20;;;;;;;12.22;nan;101378.84;4893781;29;20072;-49
2021/10/06 05:38:18;;;;;;;9.30;6.35;;;;;;;12.12;nan;101384.84;4893728;29;20064;-50
2021/10/06 05:40:43;;;;;;;10.48;5.78;;;;;;;12.16;nan;101377.91;4893012;29;20028;-48
2021/10/06 05:43:12;;;;;;;8.50;6.38;;;;;;;12.20;nan;101380.91;4892686;29;20032;-52
2021/10/06 05:45:39;;;;;;;8.15;6.03;;;;;;;12.24;nan;101382.09;4893215;29;20067;-49
2021/10/06 05:48:05;;;;;;;9.07;7.15;;;;;;;12.24;nan;101393.66;4893501;29;20452;-49
2021/10/06 05:50:30;;;;;;;9.98;6.90;;;;;;;12.25;nan;101391.78;4894018;29;20033;-51
2021/10/06 05:53:00;;;;;;;8.80;6.43;;;;;;;12.26;nan;101398.78;4892873;29;20040;-48
2021/10/06 05:55:25;;;;;;;10.55;7.18;;;;;;;12.29;nan;101407.16;4893787;29;20091;-49
2021/10/06 05:57:52;;;;;;;8.18;6.55;;;;;;;12.29;nan;101392.91;4892475;29;20032;-48
2021/10/06 06:00:17;;;;;;;11.40;7.20;;;;;;;12.30;nan;101406.09;4893517;29;20206;-49
2021/10/06 06:02:46;;;;;;;9.35;6.65;;;;;;;12.32;nan;101409.34;4894007;29;20303;-48
2021/10/06 06:05:12;;;;;;;8.40;6.13;;;;;;;12.37;nan;101425.56;4893083;29;20017;-49
2021/10/06 06:07:38;;;;;;;8.80;6.43;;;;;;;12.43;nan;101426.47;4894224;29;20028;-49
2021/10/06 06:10:04;;;;;;;9.13;6.10;;;;;;;12.45;nan;101428.91;4891754;29;20402;-51
2021/10/06 06:12:30;;;;;;;8.63;6.88;;;;;;;12.44;nan;101440.72;4893612;29;20037;-50
2021/10/06 06:14:56;;;;;;;9.27;5.75;;;;;;;12.48;nan;101439.97;4892857;29;20037;-48
2021/10/06 06:17:21;;;;;;;9.57;6.32;;;;;;;12.43;nan;101442.59;4894098;29;20047;-49
2021/10/06 06:19:47;;;;;;;11.43;6.97;;;;;;;12.46;nan;101446.66;4893325;29;20483;-49
2021/10/06 06:22:12;;;;;;;11.82;6.68;;;;;;;12.45;nan;101448.53;4893942;29;20043;-50
2021/10/06 06:24:38;;;;;;;12.57;7.10;;;;;;;12.44;nan;101448.78;4897367;29;20056;-50
2021/10/06 06:27:04;;;;;;;10.60;7.22;;;;;;;12.40;nan;101457.34;4896711;29;20411;-50
2021/10/06 06:29:30;;;;;;;8.27;6.25;;;;;;;12.53;nan;101455.38;4896779;29;20076;-48
2021/10/06 06:31:56;;;;;;;8.57;6.82;;;;;;;12.55;nan;101461.31;4896559;29;20034;-49
2021/10/06 06:34:23;;;;;;;10.05;6.53;;;;;;;12.55;nan;101467.50;4911262;29;20051;-49
2021/10/06 06:36:49;;;;;;;8.38;6.07;;;;;;;12.60;nan;101472.19;4896403;29;20032;-50
2021/10/06 06:39:14;;;;;;;7.40;5.97;;;;;;;12.64;nan;101478.69;4896068;29;20628;-49
2021/10/06 06:41:40;;;;;;;7.65;5.88;;;;;;;12.48;nan;101484.88;4895716;29;20067;-49
2021/10/06 06:44:06;;;;;;;7.80;5.97;;;;;;;12.62;nan;101480.81;4895796;29;20032;-51
2021/10/06 06:46:31;;;;;;;8.25;6.03;;;;;;;12.58;nan;101482.34;4898273;29;20066;-50
2021/10/06 06:48:57;;;;;;;8.80;5.97;;;;;;;12.70;nan;101475.00;4895574;29;20036;-51
2021/10/06 06:51:23;;;;;;;10.95;6.18;;;;;;;12.62;nan;101486.19;4896614;29;20408;-48
2021/10/06 06:53:49;;;;;;;7.70;5.07;;;;;;;12.66;nan;101480.06;4895242;29;20035;-52
2021/10/06 06:56:15;;;;;;;8.45;5.68;;;;;;;12.76;nan;101486.69;4897026;29;20455;-50
2021/10/06 06:58:40;;;;;;;6.90;5.35;;;;;;;12.83;nan;101495.41;4895315;29;20024;-51
2021/10/06 07:01:06;;;;;;;10.55;5.45;;;;;;;12.76;nan;101505.50;4895815;29;20036;-49
2021/10/06 07:03:31;;;;;;;9.98;5.70;;;;;;;12.65;nan;101509.88;4896151;29;20492;-48
2021/10/06 07:05:57;;;;;;;6.88;5.10;;;;;;;12.61;nan;101511.44;4895652;29;20028;-49
2021/10/06 07:08:23;;;;;;;8.98;5.90;;;;;;;12.64;nan;101524.41;4895936;29;20508;-49
2021/10/06 07:10:48;;;;;;;9.00;6.45;;;;;;;12.75;nan;101520.00;4895524;29;20036;-50
2021/10/06 07:13:14;;;;;;;6.88;5.15;;;;;;;12.87;nan;101528.81;4895873;29;20073;-52
2021/10/06 07:15:39;;;;;;;10.40;5.03;;;;;;;12.92;nan;101529.69;4896680;29;20033;-49
2021/10/06 07:18:04;;;;;;;7.47;5.80;;;;;;;13.04;nan;101542.25;4895666;29;20024;-50
2021/10/06 07:20:30;;;;;;;6.97;4.72;;;;;;;13.08;nan;101543.38;4896144;29;20441;-49
2021/10/06 07:22:56;;;;;;;9.05;4.95;;;;;;;13.24;nan;101542.59;4895117;29;20072;-51
2021/10/06 07:25:21;;;;;;;6.05;4.53;;;;;;;13.32;nan;101558.34;4896223;29;21913;-49
2021/10/06 07:27:47;;;;;;;7.15;4.80;;;;;;;13.33;nan;101551.91;4895163;29;20047;-52
2021/10/06 07:30:12;;;;;;;5.85;4.47;;;;;;;13.33;nan;101561.84;4895485;29;20033;-49
2021/10/06 07:32:39;;;;;;;7.55;4.60;;;;;;;13.38;nan;101564.63;4895651;29;20349;-48
2021/10/06 07:35:05;;;;;;;7.85;4.50;;;;;;;13.35;nan;101568.63;4894989;29;20098;-50
2021/10/06 07:37:31;;;;;;;5.60;3.85;;;;;;;13.26;nan;101565.50;4895841;29;20036;-50
2021/10/06 07:39:57;;;;;;;6.22;4.70;;;;;;;13.24;nan;101574.88;4895082;29;20087;-49
2021/10/06 07:42:22;;;;;;;11.95;4.65;;;;;;;13.43;nan;101586.22;4895030;29;20891;-49
2021/10/06 07:44:48;;;;;;;9.13;4.05;;;;;;;13.37;nan;101579.94;4898655;29;20024;-50
2021/10/06 07:47:13;;;;;;;5.10;4.35;;;;;;;13.33;nan;101586.06;4895689;29;20103;-51
2021/10/06 07:49:40;;;;;;;6.10;4.10;;;;;;;13.41;nan;101586.47;4895116;29;20048;-49
2021/10/06 07:52:05;;;;;;;5.38;3.53;;;;;;;13.39;nan;101583.19;4895062;29;20070;-51
2021/10/06 07:54:31;;;;;;;6.65;4.05;;;;;;;13.39;nan;101596.66;4895042;29;20048;-48
2021/10/06 07:56:56;;;;;;;6.43;4.10;;;;;;;13.49;nan;101599.53;4894763;29;20038;-50
2021/10/06 07:59:22;;;;;;;5.72;3.78;;;;;;;13.50;nan;101598.47;4895261;29;20036;-49
2021/10/06 08:01:48;;;;;;;6.00;4.32;;;;;;;13.77;nan;101611.22;4895114;29;20035;-51
2021/10/06 08:04:13;;;;;;;5.18;3.47;;;;;;;13.87;nan;101611.38;4895351;29;20369;-49
2021/10/06 08:06:39;;;;;;;3.90;3.53;;;;;;;14.32;nan;101611.13;4898265;29;20324;-49
2021/10/06 08:09:05;;;;;;;3.88;3.30;;;;;;;14.57;nan;101607.13;4894288;29;20047;-48
2021/10/06 08:11:35;;;;;;;4.43;3.50;;;;;;;14.92;nan;101602.09;4894893;29;20062;-50
2021/10/06 08:14:01;;;;;;;3.95;3.40;;;;;;;15.37;nan;101598.94;4897975;29;20035;-48
2021/10/06 08:16:27;;;;;;;6.53;3.30;;;;;;;15.70;nan;101603.22;4894758;29;20563;-49
2021/10/06 08:18:54;;;;;;;5.30;3.28;;;;;;;15.90;nan;101602.53;4893877;29;20119;-48
2021/10/06 08:21:19;;;;;;;7.22;3.95;;;;;;;16.05;nan;101609.91;4894836;29;20029;-51
2021/10/06 08:23:45;;;;;;;7.85;3.17;;;;;;;15.93;nan;101607.41;4894540;29;20419;-50
2021/10/06 08:26:10;;;;;;;6.28;3.10;;;;;;;15.76;nan;101609.47;4893739;29;20033;-51
2021/10/06 08:28:36;;;;;;;5.60;2.80;;;;;;;15.57;nan;101616.34;4894960;29;20479;-49
2021/10/06 08:31:02;;;;;;;3.42;2.63;;;;;;;15.60;nan;101613.97;4894038;29;20112;-51
2021/10/06 08:33:28;;;;;;;7.53;2.00;;;;;;;15.54;nan;101614.16;4895091;29;20040;-48
2021/10/06 08:35:53;;;;;;;3.67;1.90;;;;;;;15.19;nan;101617.41;4894282;29;20032;-50
2021/10/06 08:38:19;;;;;;;4.30;2.42;;;;;;;15.33;nan;101616.72;4894806;29;20048;-50
2021/10/06 08:40:45;;;;;;;7.22;2.15;;;;;;;15.09;nan;101628.94;4893846;29;20032;-50
2021/10/06 08:43:11;;;;;;;4.40;2.10;;;;;;;15.46;nan;101623.59;4892820;29;20376;-50
2021/10/06 08:45:38;;;;;;;3.17;1.80;;;;;;;15.53;nan;101632.25;4897631;29;20024;-48
2021/10/06 08:48:06;;;;;;;3.92;1.83;;;;;;;15.63;nan;101636.97;4893346;29;20029;-50
2021/10/06 08:50:32;;;;;;;4.65;1.55;;;;;;;16.00;nan;101639.63;4893391;29;20055;-50
2021/10/06 08:52:58;;;;;;;5.47;1.88;;;;;;;16.07;nan;101633.97;4894253;29;20028;-49
2021/10/06 08:55:30;;;;;;;2.88;1.90;;;;;;;16.01;nan;101635.84;4893555;29;20622;-49
2021/10/06 08:58:02;;;;;;;3.08;1.75;;;;;;;16.17;nan;101645.66;4894335;29;20127;-52
2021/10/06 09:00:29;;;;;;;5.53;2.00;;;;;;;15.78;nan;101639.75;4893361;29;20039;-48
2021/10/06 09:02:55;;;;;;;4.28;2.20;;;;;;;15.56;nan;101647.94;4894133;29;20110;-48
2021/10/06 09:05:22;;;;;;;3.88;2.15;;;;;;;15.69;nan;101646.72;4893521;29;20465;-50
2021/10/06 09:08:05;;;;;;;3.85;1.90;;;;;;;16.28;nan;101654.59;4894050;29;20089;-52
2021/10/06 09:10:34;;;;;;;1.75;1.63;;;;;;;16.67;nan;101651.53;4893675;29;20055;-49
2021/10/06 09:13:06;;;;;;;2.55;2.05;;;;;;;16.18;nan;101657.28;4893573;29;20028;-49
2021/10/06 09:15:48;;;;;;;3.63;1.90;;;;;;;16.41;nan;101666.84;4894311;29;20039;-48
2021/10/06 09:18:21;;;;;;;3.30;1.80;;;;;;;16.87;nan;101660.50;4894532;29;20084;-49
2021/10/06 09:20:48;;;;;;;3.65;2.17;;;;;;;16.89;nan;101666.47;4893572;29;20028;-52
2021/10/06 09:23:16;;;;;;;4.72;1.90;;;;;;;16.75;nan;101664.53;4893709;29;20027;-49
2021/10/06 09:25:52;;;;;;;9.30;2.20;;;;;;;16.51;nan;101662.25;4892933;29;20492;-51
2021/10/06 09:28:42;;;;;;;3.35;1.60;;;;;;;16.72;nan;101667.78;4893029;29;20396;-49
2021/10/06 09:31:11;;;;;;;2.55;1.52;;;;;;;16.76;nan;101674.28;4897740;29;20040;-53
2021/10/06 09:33:50;;;;;;;5.38;2.03;;;;;;;16.60;nan;101674.22;4897164;29;20029;-52
2021/10/06 09:36:20;;;;;;;6.20;1.90;;;;;;;16.74;nan;101668.34;4894596;29;20040;-50
2021/10/06 09:38:47;;;;;;;1.95;1.23;;;;;;;17.08;nan;101668.66;4893016;29;20039;-52
2021/10/06 09:41:33;;;;;;;3.40;1.60;;;;;;;17.28;nan;101662.47;4893479;29;20043;-50
2021/10/06 09:44:18;;;;;;;4.10;1.45;;;;;;;17.26;nan;101672.75;4892708;29;20103;-49
2021/10/06 09:46:57;;;;;;;2.65;1.30;;;;;;;17.63;nan;101681.41;4893904;29;20032;-50
2021/10/06 09:49:28;;;;;;;4.80;1.35;;;;;;;17.40;nan;101677.34;4893371;29;20159;-50
2021/10/06 09:52:13;;;;;;;2.20;1.10;;;;;;;17.77;nan;101685.22;4893193;29;20040;-49
2021/10/06 09:54:39;;;;;;;2.53;1.10;;;;;;;18.42;nan;101691.53;4893294;29;20033;-48
2021/10/06 09:57:05;;;;;;;1.45;0.90;;;;;;;18.23;nan;101695.94;4892337;29;20115;-50
2021/10/06 09:59:32;;;;;;;3.63;1.10;;;;;;;18.02;nan;101697.09;4893264;29;20588;-49
2021/10/06 10:01:59;;;;;;;2.65;1.63;;;;;;;17.81;nan;101708.00;4892583;29;20075;-50
2021/10/06 10:04:28;;;;;;;4.70;1.20;;;;;;;17.63;nan;101715.81;4893277;29;20084;-49
2021/10/06 10:06:55;;;;;;;5.28;1.30;;;;;;;17.65;nan;101709.06;4893228;29;20104;-49
2021/10/06 10:09:21;;;;;;;2.33;1.10;;;;;;;17.89;nan;101711.22;4892453;29;20032;-51
2021/10/06 10:11:47;;;;;;;3.47;1.55;;;;;;;17.17;nan;101718.50;4892752;29;20036;-51
2021/10/06 10:14:13;;;;;;;5.50;1.10;;;;;;;16.65;nan;101724.81;4893104;29;20035;-49
2021/10/06 10:16:39;;;;;;;7.05;1.38;;;;;;;16.43;nan;101730.41;4892775;29;20056;-50
2021/10/06 10:19:12;;;;;;;3.22;1.05;;;;;;;16.59;nan;101732.09;4892741;29;20031;-50
2021/10/06 10:21:44;;;;;;;2.95;1.15;;;;;;;17.06;nan;101731.22;4893884;29;20076;-49
2021/10/06 10:24:13;;;;;;;1.67;1.20;;;;;;;17.53;nan;101733.69;4892203;29;20032;-51
2021/10/06 10:27:03;;;;;;;3.45;1.00;;;;;;;18.00;nan;101731.81;4892753;29;20028;-49
2021/10/06 10:29:50;;;;;;;3.80;0.93;;;;;;;18.92;nan;101735.06;4892657;29;20033;-50
2021/10/06 10:32:20;;;;;;;3.35;1.10;;;;;;;19.35;nan;101732.59;4889737;29;20659;-49
2021/10/06 10:35:05;;;;;;;2.50;1.00;;;;;;;19.42;nan;101731.19;4892228;29;20040;-49
2021/10/06 10:37:49;;;;;;;;;;;;;;;19.13;nan;101733.03;4893195;29;20040;-49
2021/10/06 10:40:32;;;;;;;4.88;1.13;;;;;;;19.01;nan;101739.59;4892805;29;20035;-52
2021/10/06 10:43:11;;;;;;;1.88;0.70;;;;;;;18.00;nan;101739.94;4891488;29;20472;-51
2021/10/06 10:45:43;;;;;;;3.15;1.17;;;;;;;17.95;nan;101738.03;4896362;29;20036;-51
2021/10/06 10:48:12;;;;;;;2.22;0.90;;;;;;;17.93;nan;101742.94;4891921;29;20713;-50
2021/10/06 10:50:44;;;;;;;2.20;0.73;;;;;;;17.81;nan;101743.22;4906480;29;20225;-52
2021/10/06 10:53:18;;;;;;;2.83;1.10;;;;;;;17.93;nan;101751.06;4890571;29;20037;-50
2021/10/06 10:55:55;;;;;;;2.97;1.20;;;;;;;18.08;nan;101755.66;4890442;29;20041;-49
2021/10/06 10:58:41;;;;;;;3.20;0.98;;;;;;;17.74;nan;101750.00;4891843;29;20122;-50
2021/10/06 11:01:13;;;;;;;3.55;0.95;;;;;;;17.60;nan;101768.69;4890404;29;20028;-50
2021/10/06 11:04:13;;;;;;;2.75;1.05;;;;;;;17.75;nan;101773.28;4894263;29;20039;-50
2021/10/06 11:06:41;;;;;;;1.10;0.88;;;;;;;17.95;nan;101772.47;4873689;29;20092;-50
2021/10/06 11:09:32;;;;;;;2.25;1.02;;;;;;;18.02;nan;101781.16;4892823;29;20764;-53
2021/10/06 11:12:06;;;;;;;2.20;1.27;;;;;;;18.05;nan;101775.19;4893591;29;20045;-50
2021/10/06 11:14:33;;;;;;;2.92;1.00;;;;;;;18.01;nan;101782.25;4894020;29;20040;-51
2021/10/06 11:17:11;;;;;;;2.40;1.00;;;;;;;18.27;nan;101781.13;4893084;29;20044;-52
2021/10/06 11:19:43;;;;;;;2.40;1.02;;;;;;;18.57;nan;101777.53;4892382;29;20028;-49
2021/10/06 11:22:23;;;;;;;2.65;1.10;;;;;;;18.29;nan;101781.66;4893459;29;20036;-49
2021/10/06 11:24:58;;;;;;;2.72;1.10;;;;;;;18.40;nan;101785.97;4894156;29;20032;-52
2021/10/06 11:27:25;;;;;;;3.08;1.35;;;;;;;18.72;nan;101784.84;4893794;29;20102;-51
2021/10/06 11:29:55;;;;;;;2.70;1.23;;;;;;;19.52;nan;101787.38;4894287;29;20100;-51
2021/10/06 11:32:21;;;;;;;1.60;0.82;;;;;;;19.22;nan;101782.97;4893505;29;20599;-50
2021/10/06 11:34:49;;;;;;;1.77;0.82;;;;;;;18.84;nan;101784.50;4893231;29;20123;-51
2021/10/06 11:37:26;;;;;;;3.35;1.30;;;;;;;18.07;nan;101783.84;4892888;29;20044;-51